Beechworth, Victoria

12:38 AM AEST on September 19, 2014 (GMT +1000)
Wooragee | Change Station
CLOSE
Current Station
Personal Weather Station
Location: Wooragee, VICTORIA
Elevation: 1125 ft
Nearby Weather Stations

Elev 1125 ft 36.30 °S, 146.69 °E | Updated 8 minutes ago

Clear
Clear
31.1 °F
Feels Like 31 °F
N
0.0
Wind Variable Wind from SW
Gusts 0.0 mph

Today
High -- | Low -- °F
--% Chance of Precip.
Yesterday
High -- | Low -- °F
Precip. -- in
6:08 AM 6:07 PM
Waning Crescent, 27% visible
Pressure 30.21 in
Visibility 6.2 miles
Clouds
Windchill 31 °F
Dew Point 30 °F
Humidity 95%
Rainfall 0.00 in
Snow Depth Not available.
UV Not available.
Pollen Not available.
Air Quality Not available.
Flu Activity Not available.
METAR YMAY 181400Z AUTO 00000KT 9999 // NCD 05/03 Q1023

More Conditions Fewer Conditions

Pressure 30.21 in
Visibility 6.2 miles
Clouds
Windchill 31 °F
Dew Point 30 °F
Humidity 95%
Rainfall 0.00 in
Snow Depth Not available.
UV Not available.
Pollen Not available.
Air Quality Not available.
Flu Activity Not available.
METAR YMAY 181400Z AUTO 00000KT 9999 // NCD 05/03 Q1023

More Conditions Fewer Conditions

10-Day Weather Forecast

Almanac

Astronomy

Sep. 19, 2014 Rise Set
Actual Time 6:08 AM AEST 6:07 PM AEST
Civil Twilight 5:42 AM AEST 6:32 PM AEST
Nautical Twilight 5:12 AM AEST 7:02 PM AEST
Astronomical Twilight 4:42 AM AEST 7:32 PM AEST
Moon 2:56 AM AEST (9/19) 1:40 PM AEST (9/19)
Length of Visible Light 12h 50m
Length of Day
11h 58m
Tomorrow will be 2m 17s longer.
Waning Crescent, 27% of the Moon is Illuminated
Sep 18
Waning Crescent
Sep 24
New
Oct 1
First Quarter
Oct 8
Full
Oct 15
Last Quarter

Yesterday's Extremes

Country Highs Country Lows

Community

WunderPhotos

Upload Photos

1,754,355 photos uploaded!

Nearby

Snow Depth

Not available.

Earthquake Activity

City Distance Mag. Time & Date
No recent earthquake activity has been reported nearby.
Minimum magnitude displayed is 2.5.

Coastal Water Temperatures

Place Temperature
No Stations Reporting

Nearby Weather Stations